Time;durP1;ratioP1;P1;durP2;ratioP2;P2;SDS_P1;SDS_P2;PMS_P1;PMS_P2;Temp;Humidity;BMP_temperature;BMP_pressure;BME280_temperature;BME280_humidity;BME280_pressure;Samples;Min_cycle;Max_cycle;Signal;HPM_P1;HPM_P2
2021/08/11 00:01:44;;;;;;;;;;;14.40;99.90;;;;;;1891407;76;20264;-77
2021/08/11 00:04:11;;;;;;;;;;;14.40;99.90;;;;;;1889884;76;20181;-78
2021/08/11 00:06:38;;;;;;;;;;;14.40;99.90;;;;;;1892149;76;20188;-78
2021/08/11 00:09:04;;;;;;;;;;;14.30;99.90;;;;;;1891292;75;20392;-78
2021/08/11 00:11:32;;;;;;;;;;;14.30;99.90;;;;;;1889419;76;20169;-78
2021/08/11 00:13:59;;;;;;;;;;;14.30;99.90;;;;;;1892533;76;20111;-78
2021/08/11 00:16:26;;;;;;;;;;;14.30;99.90;;;;;;1890092;76;20220;-76
2021/08/11 00:18:57;;;;;;;;;;;14.30;99.90;;;;;;1890905;76;20338;-78
2021/08/11 00:21:22;;;;;;;;;;;14.20;99.90;;;;;;1880948;75;20468;-77
2021/08/11 00:23:49;;;;;;;;;;;14.10;99.90;;;;;;1891317;76;20502;-77
2021/08/11 00:26:16;;;;;;;;;;;14.20;99.90;;;;;;1883853;76;20206;-77
2021/08/11 00:28:43;;;;;;;;;;;14.20;99.90;;;;;;1887656;75;20152;-77
2021/08/11 00:31:10;;;;;;;;;;;14.20;99.90;;;;;;1882459;76;20177;-77
2021/08/11 00:33:37;;;;;;;;;;;14.20;99.90;;;;;;1883198;76;20163;-77
2021/08/11 00:36:03;;;;;;;;;;;14.20;99.90;;;;;;1888269;75;20124;-76
2021/08/11 00:38:30;;;;;;;;;;;14.10;99.90;;;;;;1876906;76;20133;-78
2021/08/11 00:40:57;;;;;;;;;;;14.20;99.90;;;;;;1885904;76;20168;-78
2021/08/11 00:43:24;;;;;;;;;;;14.10;99.90;;;;;;1881559;76;20224;-78
2021/08/11 00:45:51;;;;;;;;;;;14.10;99.90;;;;;;1905204;74;20448;-77
2021/08/11 00:48:18;;;;;;;;;;;14.10;99.90;;;;;;1876495;76;20141;-77
2021/08/11 00:50:45;;;;;;;;;;;14.20;99.90;;;;;;1904906;75;20190;-78
2021/08/11 00:53:13;;;;;;;;;;;14.20;99.90;;;;;;1895423;76;20165;-78
2021/08/11 00:55:40;;;;;;;;;;;14.10;99.90;;;;;;1895055;76;20207;-79
2021/08/11 00:58:09;;;;;;;;;;;14.20;99.90;;;;;;1881332;76;20197;-78
2021/08/11 01:00:37;;;;;;;;;;;14.20;99.90;;;;;;1885637;76;20219;-77
2021/08/11 01:03:05;;;;;;;;;;;14.10;99.90;;;;;;1877354;75;20187;-78
2021/08/11 01:05:32;;;;;;;;;;;14.20;99.90;;;;;;1883685;75;20130;-76
2021/08/11 01:07:59;;;;;;;;;;;14.20;99.90;;;;;;1913733;74;20179;-77
2021/08/11 01:10:26;;;;;;;;;;;14.20;99.90;;;;;;1858867;75;20276;-77
2021/08/11 01:12:53;;;;;;;;;;;14.20;99.90;;;;;;1865187;77;20204;-77
2021/08/11 01:15:20;;;;;;;;;;;14.20;99.90;;;;;;1871823;77;20260;-76
2021/08/11 01:17:47;;;;;;;;;;;14.10;99.90;;;;;;1885551;75;20508;-77
2021/08/11 01:20:14;;;;;;;;;;;14.10;99.90;;;;;;1858071;75;20185;-77
2021/08/11 01:22:48;;;;;;;;;;;14.10;99.90;;;;;;1877080;76;20175;-77
2021/08/11 01:25:19;;;;;;;;;;;14.00;99.90;;;;;;1888295;76;20164;-77
2021/08/11 01:28:04;;;;;;;;;;;14.00;99.90;;;;;;1889880;75;20154;-77
2021/08/11 01:30:44;;;;;;;;;;;14.00;99.90;;;;;;1890270;76;20108;-77
2021/08/11 01:33:12;;;;;;;;;;;14.00;99.90;;;;;;1889355;76;20123;-76
2021/08/11 01:35:42;;;;;;;;;;;14.00;99.90;;;;;;1864302;75;20166;-78
2021/08/11 01:38:15;;;;;;;;;;;14.00;99.90;;;;;;1883202;75;20185;-78
2021/08/11 01:40:40;;;;;;;;;;;13.90;99.90;;;;;;1874515;76;20186;-77
2021/08/11 01:43:07;;;;;;;;;;;14.00;99.90;;;;;;1886474;75;20175;-77
2021/08/11 01:45:37;;;;;;;;;;;14.00;99.90;;;;;;1911248;74;20145;-78
2021/08/11 01:48:08;;;;;;;;;;;13.90;99.90;;;;;;1845493;78;20240;-77
2021/08/11 01:50:36;;;;;;;;;;;13.90;99.90;;;;;;1885858;75;20189;-79
2021/08/11 01:53:05;;;;;;;;;;;13.90;99.90;;;;;;1905139;75;20233;-77
2021/08/11 01:55:32;;;;;;;;;;;13.90;99.90;;;;;;1911622;75;20198;-78
2021/08/11 01:57:59;;;;;;;;;;;13.90;99.90;;;;;;1911469;75;20237;-77
2021/08/11 02:00:26;;;;;;;;;;;13.90;99.90;;;;;;1911441;75;20508;-77
2021/08/11 02:02:53;;;;;;;;;;;13.90;99.90;;;;;;1911479;75;20180;-78
2021/08/11 02:05:22;;;;;;;;;;;13.90;99.90;;;;;;1908155;75;20154;-77
2021/08/11 02:07:49;;;;;;;;;;;13.90;99.90;;;;;;1904226;75;20131;-77
2021/08/11 02:10:16;;;;;;;;;;;13.80;99.90;;;;;;1911578;75;20200;-77
2021/08/11 02:12:43;;;;;;;;;;;13.80;99.90;;;;;;1911823;75;20181;-77
2021/08/11 02:15:11;;;;;;;;;;;13.80;99.90;;;;;;1911775;75;20197;-76
2021/08/11 02:17:38;;;;;;;;;;;13.70;99.90;;;;;;1911545;75;20206;-77
2021/08/11 02:20:06;;;;;;;;;;;13.80;99.90;;;;;;1911573;75;20172;-76
2021/08/11 02:22:32;;;;;;;;;;;13.80;99.90;;;;;;1902636;75;20172;-76
2021/08/11 02:24:59;;;;;;;;;;;13.80;99.90;;;;;;1908045;74;20822;-78
2021/08/11 02:27:28;;;;;;;;;;;13.70;99.90;;;;;;1911500;75;20245;-76
2021/08/11 02:29:59;;;;;;;;;;;13.80;99.90;;;;;;1911321;74;20189;-77
2021/08/11 02:32:27;;;;;;;;;;;13.90;99.90;;;;;;1910997;74;20174;-78
2021/08/11 02:34:56;;;;;;;;;;;13.80;99.90;;;;;;1911332;75;20529;-78
2021/08/11 02:37:24;;;;;;;;;;;13.80;99.90;;;;;;1901311;75;20193;-78
2021/08/11 02:39:58;;;;;;;;;;;13.90;99.90;;;;;;1909621;74;20504;-77
2021/08/11 02:42:27;;;;;;;;;;;13.90;99.90;;;;;;1909933;75;20194;-77
2021/08/11 02:44:58;;;;;;;;;;;13.90;99.90;;;;;;1910182;75;20150;-78
2021/08/11 02:47:25;;;;;;;;;;;13.90;99.90;;;;;;1910927;74;20219;-78
2021/08/11 02:49:52;;;;;;;;;;;14.00;99.90;;;;;;1911463;75;20898;-78
2021/08/11 02:52:19;;;;;;;;;;;13.90;99.90;;;;;;1908304;75;20197;-78
2021/08/11 02:54:46;;;;;;;;;;;14.00;99.90;;;;;;1910408;75;20205;-78
2021/08/11 02:57:13;;;;;;;;;;;13.90;99.90;;;;;;1909630;75;20237;-78
2021/08/11 02:59:40;;;;;;;;;;;13.90;99.90;;;;;;1911420;75;20185;-77
2021/08/11 03:02:07;;;;;;;;;;;13.90;99.90;;;;;;1910979;75;20213;-78
2021/08/11 03:04:34;;;;;;;;;;;13.90;99.90;;;;;;1911298;75;20557;-78
2021/08/11 03:07:01;;;;;;;;;;;13.80;99.90;;;;;;1910707;75;20142;-77
2021/08/11 03:09:28;;;;;;;;;;;13.70;99.90;;;;;;1910424;75;20142;-78
2021/08/11 03:11:55;;;;;;;;;;;13.70;99.90;;;;;;1910402;75;20420;-77
2021/08/11 03:14:22;;;;;;;;;;;13.80;99.90;;;;;;1909930;75;20178;-78
2021/08/11 03:16:49;;;;;;;;;;;13.80;99.90;;;;;;1909432;75;20263;-79
2021/08/11 03:19:16;;;;;;;;;;;13.70;99.90;;;;;;1909439;75;20347;-77
2021/08/11 03:21:43;;;;;;;;;;;13.70;99.90;;;;;;1909559;75;20201;-78
2021/08/11 03:24:10;;;;;;;;;;;13.60;99.90;;;;;;1911220;75;20278;-77
2021/08/11 03:26:37;;;;;;;;;;;13.70;99.90;;;;;;1909043;75;20217;-77
2021/08/11 03:29:04;;;;;;;;;;;13.80;99.90;;;;;;1909214;75;20372;-78
2021/08/11 03:31:31;;;;;;;;;;;13.80;99.90;;;;;;1909446;75;20190;-78
2021/08/11 03:33:58;;;;;;;;;;;13.80;99.90;;;;;;1909251;74;20202;-78
2021/08/11 03:36:25;;;;;;;;;;;13.70;99.90;;;;;;1909665;75;20197;-77
2021/08/11 03:38:52;;;;;;;;;;;13.60;99.90;;;;;;1895324;75;20144;-79
2021/08/11 03:41:38;;;;;;;;;;;13.70;99.90;;;;;;1859041;77;20183;-77
2021/08/11 03:44:05;;;;;;;;;;;13.70;99.90;;;;;;1825293;78;20164;-77
2021/08/11 03:46:32;;;;;;;;;;;13.70;99.90;;;;;;1825771;79;20220;-77
2021/08/11 03:49:00;;;;;;;;;;;13.60;99.90;;;;;;1796136;79;20194;-77
2021/08/11 03:51:26;;;;;;;;;;;13.60;99.90;;;;;;1830557;78;20148;-77
2021/08/11 03:53:53;;;;;;;;;;;13.60;99.90;;;;;;1859339;77;20189;-77
2021/08/11 03:56:20;;;;;;;;;;;13.60;99.90;;;;;;1802296;79;20126;-75
2021/08/11 03:58:47;;;;;;;;;;;13.50;99.90;;;;;;1808778;79;20164;-77
2021/08/11 04:01:13;;;;;;;;;;;13.60;99.90;;;;;;1808865;79;20258;-77
2021/08/11 04:03:40;;;;;;;;;;;13.50;99.90;;;;;;1817643;79;20113;-76
2021/08/11 04:06:07;;;;;;;;;;;13.60;99.90;;;;;;1844309;76;20163;-77
2021/08/11 04:08:34;;;;;;;;;;;13.50;99.90;;;;;;1792875;80;20463;-76
2021/08/11 04:11:01;;;;;;;;;;;13.40;99.90;;;;;;1867161;77;20149;-78
2021/08/11 04:13:27;;;;;;;;;;;13.40;99.90;;;;;;1838861;77;20449;-77
2021/08/11 04:15:54;;;;;;;;;;;13.50;99.90;;;;;;1823162;79;20217;-77
2021/08/11 04:18:22;;;;;;;;;;;13.40;99.90;;;;;;1823173;79;20300;-77
2021/08/11 04:20:49;;;;;;;;;;;13.40;99.90;;;;;;1857522;77;20208;-76
2021/08/11 04:23:15;;;;;;;;;;;13.50;99.90;;;;;;1859058;77;20170;-77
2021/08/11 04:25:42;;;;;;;;;;;13.40;99.90;;;;;;1824452;79;20188;-77
2021/08/11 04:28:10;;;;;;;;;;;13.40;99.90;;;;;;1823929;79;20160;-78
2021/08/11 04:30:37;;;;;;;;;;;13.30;99.90;;;;;;1822997;79;20210;-77
2021/08/11 04:33:04;;;;;;;;;;;13.40;99.90;;;;;;1856360;76;20189;-77
2021/08/11 04:35:30;;;;;;;;;;;13.50;99.90;;;;;;1849833;77;20260;-77
2021/08/11 04:37:57;;;;;;;;;;;13.50;99.90;;;;;;1815667;78;20172;-78
2021/08/11 04:40:24;;;;;;;;;;;13.60;99.90;;;;;;1795759;79;20187;-78
2021/08/11 04:42:51;;;;;;;;;;;13.80;99.90;;;;;;1816759;77;20182;-77
2021/08/11 04:45:18;;;;;;;;;;;13.90;99.90;;;;;;1821568;79;20465;-76
2021/08/11 04:47:46;;;;;;;;;;;14.00;99.90;;;;;;1855605;77;20481;-77
2021/08/11 04:50:13;;;;;;;;;;;13.90;99.90;;;;;;1850863;77;20604;-77
2021/08/11 04:52:40;;;;;;;;;;;13.80;99.90;;;;;;1856498;77;20171;-76
2021/08/11 04:55:07;;;;;;;;;;;13.70;99.90;;;;;;1840300;77;20186;-76
2021/08/11 04:57:34;;;;;;;;;;;13.80;99.90;;;;;;1860262;76;20198;-76
2021/08/11 05:00:01;;;;;;;;;;;13.90;99.90;;;;;;1824025;79;20183;-76
2021/08/11 05:02:28;;;;;;;;;;;13.90;99.90;;;;;;1847505;77;20223;-76
2021/08/11 05:04:55;;;;;;;;;;;13.90;99.90;;;;;;1806152;79;20499;-77
2021/08/11 05:07:22;;;;;;;;;;;13.90;99.90;;;;;;1845948;77;20185;-78
2021/08/11 05:09:48;;;;;;;;;;;14.00;99.90;;;;;;1838819;77;20493;-77
2021/08/11 05:12:15;;;;;;;;;;;14.00;99.90;;;;;;1825692;77;20183;-77
2021/08/11 05:14:42;;;;;;;;;;;14.10;99.90;;;;;;1851506;77;20189;-77
2021/08/11 05:17:09;;;;;;;;;;;14.30;99.90;;;;;;1856373;77;20212;-77
2021/08/11 05:19:36;;;;;;;;;;;14.40;99.90;;;;;;1823879;79;20407;-78
2021/08/11 05:22:03;;;;;;;;;;;14.40;99.90;;;;;;1823682;79;20183;-77
2021/08/11 05:24:30;;;;;;;;;;;14.50;99.90;;;;;;1839498;77;20486;-79
2021/08/11 05:26:56;;;;;;;;;;;14.50;99.90;;;;;;1824217;79;20172;-77
2021/08/11 05:29:24;;;;;;;;;;;14.50;99.90;;;;;;1823979;79;20457;-77
2021/08/11 05:31:50;;;;;;;;;;;14.60;99.90;;;;;;1817346;79;20247;-78
2021/08/11 05:34:17;;;;;;;;;;;14.60;99.90;;;;;;1833903;77;20126;-77
2021/08/11 05:36:44;;;;;;;;;;;14.50;99.90;;;;;;1856516;77;20236;-78
2021/08/11 05:39:11;;;;;;;;;;;14.60;99.90;;;;;;1825715;79;20199;-77
2021/08/11 05:41:38;;;;;;;;;;;14.50;99.90;;;;;;1841834;76;20116;-77
2021/08/11 05:44:05;;;;;;;;;;;14.60;99.90;;;;;;1855688;77;20440;-78
2021/08/11 05:46:32;;;;;;;;;;;14.60;99.90;;;;;;1820174;77;20246;-78
2021/08/11 05:48:59;;;;;;;;;;;14.60;99.90;;;;;;1847949;77;20194;-73
2021/08/11 05:51:26;;;;;;;;;;;14.70;99.90;;;;;;1856608;77;20169;-73
2021/08/11 05:53:53;;;;;;;;;;;14.70;99.90;;;;;;1824409;79;20183;-73
2021/08/11 05:56:20;;;;;;;;;;;14.80;99.90;;;;;;1824253;79;20186;-73
2021/08/11 05:58:47;;;;;;;;;;;14.80;99.90;;;;;;1846209;77;20183;-75
2021/08/11 06:01:14;;;;;;;;;;;14.80;99.90;;;;;;1843300;77;20225;-76
2021/08/11 06:03:41;;;;;;;;;;;14.80;99.90;;;;;;1841780;77;20180;-77
2021/08/11 06:06:08;;;;;;;;;;;14.80;99.90;;;;;;1835840;77;20185;-77
2021/08/11 06:08:34;;;;;;;;;;;14.90;99.90;;;;;;1853488;77;20350;-77
2021/08/11 06:11:01;;;;;;;;;;;15.00;99.90;;;;;;1856148;77;20301;-74
2021/08/11 06:13:28;;;;;;;;;;;15.00;99.90;;;;;;1839946;77;20126;-75
2021/08/11 06:15:55;;;;;;;;;;;15.00;99.90;;;;;;1842290;77;20183;-74
2021/08/11 06:18:22;;;;;;;;;;;15.10;99.90;;;;;;1834804;77;20183;-77
2021/08/11 06:20:52;;;;;;;;;;;15.10;99.90;;;;;;1846441;76;20216;-76
2021/08/11 06:23:17;;;;;;;;;;;15.20;99.90;;;;;;1874653;76;20574;-76
2021/08/11 06:25:44;;;;;;;;;;;15.20;99.90;;;;;;1870082;76;20181;-77
2021/08/11 06:28:11;;;;;;;;;;;15.30;99.90;;;;;;1840607;77;20878;-76
2021/08/11 06:30:38;;;;;;;;;;;15.30;99.90;;;;;;1856701;75;20234;-77
2021/08/11 06:33:07;;;;;;;;;;;15.40;99.90;;;;;;1844177;77;20282;-76
2021/08/11 06:35:34;;;;;;;;;;;15.50;99.90;;;;;;1846965;77;20165;-75
2021/08/11 06:38:03;;;;;;;;;;;15.50;99.90;;;;;;1836711;77;20500;-76
2021/08/11 06:40:30;;;;;;;;;;;15.60;99.90;;;;;;1847145;77;20215;-76
2021/08/11 06:42:58;;;;;;;;;;;15.60;99.90;;;;;;1855159;77;20182;-76
2021/08/11 06:45:25;;;;;;;;;;;15.70;99.90;;;;;;1831401;77;20214;-76
2021/08/11 06:47:52;;;;;;;;;;;15.70;99.90;;;;;;1853770;77;20183;-73
2021/08/11 06:50:19;;;;;;;;;;;15.70;99.90;;;;;;1851546;76;20676;-74
2021/08/11 06:52:45;;;;;;;;;;;15.70;99.90;;;;;;1844687;77;20217;-74
2021/08/11 06:55:14;;;;;;;;;;;15.80;99.90;;;;;;1852239;77;20461;-75
2021/08/11 06:57:41;;;;;;;;;;;15.80;99.90;;;;;;1855139;77;20130;-75
2021/08/11 07:00:08;;;;;;;;;;;15.80;99.90;;;;;;1838143;77;20298;-75
2021/08/11 07:02:35;;;;;;;;;;;15.90;99.90;;;;;;1855280;77;20130;-75
2021/08/11 07:05:03;;;;;;;;;;;15.90;99.90;;;;;;1850798;76;20222;-75
2021/08/11 07:07:30;;;;;;;;;;;15.90;99.90;;;;;;1842858;77;20186;-74
2021/08/11 07:09:58;;;;;;;;;;;16.00;99.90;;;;;;1855177;77;20469;-74
2021/08/11 07:12:25;;;;;;;;;;;16.10;99.90;;;;;;1856259;77;20343;-74
2021/08/11 07:14:52;;;;;;;;;;;16.10;99.90;;;;;;1854869;77;20255;-73
2021/08/11 07:17:20;;;;;;;;;;;16.10;99.90;;;;;;1854890;77;20177;-73
2021/08/11 07:19:46;;;;;;;;;;;16.10;99.90;;;;;;1854427;77;20174;-73
2021/08/11 07:22:13;;;;;;;;;;;16.20;99.90;;;;;;1854253;76;20189;-73
2021/08/11 07:24:40;;;;;;;;;;;16.20;99.90;;;;;;1858075;77;20446;-74
2021/08/11 07:27:07;;;;;;;;;;;16.30;99.90;;;;;;1856300;77;20251;-73
2021/08/11 07:29:34;;;;;;;;;;;16.30;99.90;;;;;;1855167;77;20166;-74
2021/08/11 07:32:01;;;;;;;;;;;16.30;99.90;;;;;;1855706;77;20158;-74
2021/08/11 07:34:28;;;;;;;;;;;16.40;99.90;;;;;;1851392;77;20205;-74
2021/08/11 07:36:54;;;;;;;;;;;16.40;99.90;;;;;;1855622;76;20186;-74
2021/08/11 07:39:23;;;;;;;;;;;16.50;99.90;;;;;;1855190;77;20289;-74
2021/08/11 07:41:49;;;;;;;;;;;16.50;99.90;;;;;;1856290;75;20211;-74
2021/08/11 07:44:16;;;;;;;;;;;16.60;99.90;;;;;;1852835;74;20504;-74
2021/08/11 07:46:43;;;;;;;;;;;16.60;99.90;;;;;;1841925;76;20207;-74
2021/08/11 07:49:10;;;;;;;;;;;16.70;99.90;;;;;;1850829;76;20255;-74
2021/08/11 07:51:37;;;;;;;;;;;16.70;99.90;;;;;;1852349;76;20198;-75
2021/08/11 07:54:04;;;;;;;;;;;16.70;99.90;;;;;;1854150;76;20502;-76
2021/08/11 07:56:30;;;;;;;;;;;16.80;99.90;;;;;;1854150;77;20439;-75
2021/08/11 07:58:57;;;;;;;;;;;16.90;99.90;;;;;;1855290;76;20168;-76
2021/08/11 08:01:24;;;;;;;;;;;16.90;99.90;;;;;;1852598;76;20626;-75
2021/08/11 08:03:51;;;;;;;;;;;16.90;99.90;;;;;;1853164;76;20199;-75
2021/08/11 08:06:18;;;;;;;;;;;16.90;99.90;;;;;;1851713;76;20522;-76
2021/08/11 08:08:44;;;;;;;;;;;16.90;99.90;;;;;;1844820;76;20209;-76
2021/08/11 08:11:11;;;;;;;;;;;17.00;99.90;;;;;;1854650;76;20235;-75
2021/08/11 08:13:38;;;;;;;;;;;17.00;99.90;;;;;;1857424;77;20418;-75
2021/08/11 08:16:05;;;;;;;;;;;17.10;99.90;;;;;;1852163;76;20237;-75
2021/08/11 08:18:32;;;;;;;;;;;17.10;99.90;;;;;;1823610;76;20477;-76
2021/08/11 08:21:01;;;;;;;;;;;17.20;99.90;;;;;;1856639;76;20165;-76
2021/08/11 08:23:27;;;;;;;;;;;17.20;99.90;;;;;;1853729;76;20233;-75
2021/08/11 08:25:54;;;;;;;;;;;17.10;99.90;;;;;;1852712;76;20177;-75
2021/08/11 08:28:20;;;;;;;;;;;17.20;99.90;;;;;;1852670;76;20439;-74
2021/08/11 08:30:48;;;;;;;;;;;17.30;99.90;;;;;;1851949;76;20186;-75
2021/08/11 08:33:15;;;;;;;;;;;17.30;99.90;;;;;;1854472;76;20185;-76
2021/08/11 08:35:42;;;;;;;;;;;17.40;99.90;;;;;;1852663;76;20169;-77
2021/08/11 08:38:09;;;;;;;;;;;17.40;99.90;;;;;;1850369;76;20300;-77
2021/08/11 08:40:37;;;;;;;;;;;17.40;99.90;;;;;;1856823;76;20244;-77
2021/08/11 08:43:05;;;;;;;;;;;17.40;99.90;;;;;;1850856;76;20302;-77
2021/08/11 08:45:32;;;;;;;;;;;17.40;99.90;;;;;;1854730;76;20213;-77
2021/08/11 08:48:02;;;;;;;;;;;17.50;99.90;;;;;;1851362;76;20126;-79
2021/08/11 08:50:29;;;;;;;;;;;17.50;99.90;;;;;;1854732;76;20424;-76
2021/08/11 08:52:56;;;;;;;;;;;17.50;99.90;;;;;;1852447;76;20454;-77
2021/08/11 08:55:23;;;;;;;;;;;17.60;99.90;;;;;;1859110;76;20582;-75
2021/08/11 08:57:50;;;;;;;;;;;17.80;99.90;;;;;;1854887;76;20173;-78
2021/08/11 09:00:19;;;;;;;;;;;17.90;99.90;;;;;;1853892;76;20225;-76
2021/08/11 09:02:45;;;;;;;;;;;17.90;99.90;;;;;;1853930;76;20204;-76
2021/08/11 09:05:13;;;;;;;;;;;17.90;99.90;;;;;;1849542;76;20236;-76
2021/08/11 09:07:43;;;;;;;;;;;18.00;99.90;;;;;;1849447;76;20211;-76
2021/08/11 09:10:21;;;;;;;;;;;18.00;99.90;;;;;;1850530;76;20185;-75
2021/08/11 09:12:48;;;;;;;;;;;18.00;99.90;;;;;;1850018;76;20213;-76
2021/08/11 09:15:29;;;;;;;;;;;18.00;99.90;;;;;;1849463;76;20186;-75
2021/08/11 09:17:57;;;;;;;;;;;18.00;99.90;;;;;;1853363;76;20181;-75
2021/08/11 09:20:25;;;;;;;;;;;17.90;99.90;;;;;;1855097;76;20205;-75
2021/08/11 09:22:53;;;;;;;;;;;18.00;99.90;;;;;;1852258;76;20202;-73
2021/08/11 09:25:20;;;;;;;;;;;18.00;99.90;;;;;;1855228;76;20145;-74
2021/08/11 09:27:47;;;;;;;;;;;18.20;99.90;;;;;;1844332;76;20208;-73
2021/08/11 09:30:16;;;;;;;;;;;18.50;99.90;;;;;;1857615;76;20119;-73
2021/08/11 09:32:47;;;;;;;;;;;18.30;99.90;;;;;;1851735;76;20294;-73
2021/08/11 09:35:15;;;;;;;;;;;18.30;99.90;;;;;;1857991;76;20137;-77
2021/08/11 09:37:43;;;;;;;;;;;18.30;99.90;;;;;;1850977;76;20137;-75
2021/08/11 09:40:17;;;;;;;;;;;18.40;99.90;;;;;;1857033;76;20193;-75
2021/08/11 09:42:45;;;;;;;;;;;18.40;99.90;;;;;;1852104;76;20261;-74
2021/08/11 09:45:12;;;;;;;;;;;18.50;99.90;;;;;;1852155;77;20509;-74
2021/08/11 09:47:40;;;;;;;;;;;18.60;99.90;;;;;;1854416;76;20481;-75
2021/08/11 09:50:08;;;;;;;;;;;18.80;99.90;;;;;;1846521;77;20129;-77
2021/08/11 09:52:48;;;;;;;;;;;18.70;99.90;;;;;;1845901;77;20293;-75
2021/08/11 09:55:15;;;;;;;;;;;18.80;99.90;;;;;;1832183;76;20175;-76
2021/08/11 09:57:43;;;;;;;;;;;18.90;99.90;;;;;;1860691;76;20161;-74
2021/08/11 10:00:18;;;;;;;;;;;18.90;99.90;;;;;;1857489;77;20161;-75
2021/08/11 10:02:38;;;;;;;;;;;18.90;99.90;;;;;;1864067;77;20180;-75
2021/08/11 10:05:05;;;;;;;;;;;18.80;99.90;;;;;;1861343;77;20185;-74
2021/08/11 10:07:32;;;;;;;;;;;18.90;99.90;;;;;;1856179;76;20118;-76
2021/08/11 10:10:03;;;;;;;;;;;18.90;99.90;;;;;;1839811;77;20175;-72
2021/08/11 10:12:31;;;;;;;;;;;19.00;99.90;;;;;;1847503;76;20517;-75
2021/08/11 10:15:00;;;;;;;;;;;19.10;99.90;;;;;;1849724;76;20154;-75
2021/08/11 10:17:29;;;;;;;;;;;19.10;99.90;;;;;;1845960;76;20315;-72
2021/08/11 10:19:58;;;;;;;;;;;19.10;99.90;;;;;;1850111;76;20165;-72
2021/08/11 10:22:25;;;;;;;;;;;19.10;99.90;;;;;;1846533;76;20130;-75
2021/08/11 10:24:54;;;;;;;;;;;19.20;99.90;;;;;;1839310;77;20130;-76
2021/08/11 10:27:21;;;;;;;;;;;19.20;99.90;;;;;;1870334;76;20472;-75
2021/08/11 10:29:48;;;;;;;;;;;19.10;99.90;;;;;;1843286;76;20204;-76
2021/08/11 10:32:15;;;;;;;;;;;19.20;99.90;;;;;;1869074;76;20178;-75
2021/08/11 10:34:43;;;;;;;;;;;19.20;99.90;;;;;;1841103;76;20410;-74
2021/08/11 10:37:11;;;;;;;;;;;19.20;99.90;;;;;;1845243;76;20437;-72
2021/08/11 10:39:39;;;;;;;;;;;19.20;99.90;;;;;;1843660;76;20157;-71
2021/08/11 10:42:10;;;;;;;;;;;19.40;99.90;;;;;;1841831;76;20510;-70
2021/08/11 10:44:37;;;;;;;;;;;19.20;99.90;;;;;;1847152;76;20288;-72
2021/08/11 10:47:05;;;;;;;;;;;19.50;99.90;;;;;;1853895;76;20188;-70
2021/08/11 10:49:34;;;;;;;;;;;19.50;99.90;;;;;;1848743;76;20176;-71
2021/08/11 10:52:05;;;;;;;;;;;19.50;99.90;;;;;;1819223;77;20176;-71
2021/08/11 10:54:51;;;;;;;;;;;19.40;99.90;;;;;;1819822;77;20235;-71
2021/08/11 10:57:35;;;;;;;;;;;19.50;99.90;;;;;;1822639;77;20330;-72
2021/08/11 11:00:13;;;;;;;;;;;19.50;99.90;;;;;;1818978;77;20276;-73
2021/08/11 11:02:42;;;;;;;;;;;19.40;99.90;;;;;;1779573;77;20117;-72
2021/08/11 11:05:17;;;;;;;;;;;19.40;99.90;;;;;;1821320;76;20572;-73
2021/08/11 11:07:43;;;;;;;;;;;19.50;99.90;;;;;;1820495;77;20179;-75
2021/08/11 11:10:26;;;;;;;;;;;19.50;99.90;;;;;;1821557;77;20144;-72
2021/08/11 11:12:53;;;;;;;;;;;19.40;99.90;;;;;;1854404;76;20263;-73
2021/08/11 11:15:38;;;;;;;;;;;19.30;99.90;;;;;;1854913;76;20210;-72
2021/08/11 11:18:13;;;;;;;;;;;19.40;99.90;;;;;;1816220;77;20180;-73
2021/08/11 11:20:40;;;;;;;;;;;19.30;99.90;;;;;;1818967;77;20226;-72
2021/08/11 11:23:07;;;;;;;;;;;19.40;99.90;;;;;;1818264;77;20224;-73
2021/08/11 11:25:52;;;;;;;;;;;19.30;99.90;;;;;;1824774;77;20191;-72
2021/08/11 11:28:19;;;;;;;;;;;19.40;99.90;;;;;;1821382;77;20154;-73
2021/08/11 11:30:45;;;;;;;;;;;19.50;99.90;;;;;;1813155;77;20470;-72
2021/08/11 11:33:20;;;;;;;;;;;19.60;99.90;;;;;;1855495;77;20206;-72
2021/08/11 11:35:47;;;;;;;;;;;19.90;99.90;;;;;;1844250;77;20187;-73
2021/08/11 11:38:14;;;;;;;;;;;20.00;99.90;;;;;;1846247;77;20286;-74
2021/08/11 11:40:58;;;;;;;;;;;19.90;99.90;;;;;;1841509;77;20126;-72
2021/08/11 11:43:25;;;;;;;;;;;20.00;99.90;;;;;;1853103;76;20212;-72
2021/08/11 11:45:53;;;;;;;;;;;20.10;99.90;;;;;;1846396;77;20216;-73
2021/08/11 11:48:20;;;;;;;;;;;20.10;99.90;;;;;;1862026;76;20494;-73
2021/08/11 11:50:49;;;;;;;;;;;20.30;99.90;;;;;;1856293;77;20174;-73
2021/08/11 11:53:20;;;;;;;;;;;20.40;99.90;;;;;;1849685;77;20388;-73
2021/08/11 11:55:47;;;;;;;;;;;20.60;99.90;;;;;;1843381;77;20180;-73
2021/08/11 11:58:15;;;;;;;;;;;20.80;99.90;;;;;;1856474;77;20166;-74
2021/08/11 12:00:44;;;;;;;;;;;20.60;99.90;;;;;;1851153;77;20210;-73
2021/08/11 12:03:11;;;;;;;;;;;20.50;99.90;;;;;;1854018;77;20234;-72
2021/08/11 12:05:46;;;;;;;;;;;20.50;99.90;;;;;;1839583;77;20401;-73
2021/08/11 12:08:14;;;;;;;;;;;20.60;99.90;;;;;;1840223;77;20528;-72
2021/08/11 12:10:41;;;;;;;;;;;20.70;99.90;;;;;;1841046;77;20238;-72
2021/08/11 12:13:08;;;;;;;;;;;20.70;99.90;;;;;;1834279;77;20191;-72
2021/08/11 12:15:36;;;;;;;;;;;20.70;99.90;;;;;;1827528;77;20188;-71
2021/08/11 12:18:16;;;;;;;;;;;20.90;99.90;;;;;;1830914;77;20176;-73
2021/08/11 12:20:44;;;;;;;;;;;20.70;99.90;;;;;;1848862;77;20502;-73
2021/08/11 12:23:13;;;;;;;;;;;20.50;99.90;;;;;;1846194;77;20269;-73
2021/08/11 12:25:39;;;;;;;;;;;20.30;99.90;;;;;;1826670;77;20184;-77
2021/08/11 12:28:16;;;;;;;;;;;20.30;99.90;;;;;;1828174;77;20211;-77
2021/08/11 12:30:45;;;;;;;;;;;20.50;99.90;;;;;;1849668;77;20183;-79
2021/08/11 12:33:11;;;;;;;;;;;20.80;99.90;;;;;;1834125;77;20177;-77
2021/08/11 12:35:39;;;;;;;;;;;21.20;99.90;;;;;;1854403;77;20186;-77
2021/08/11 12:38:06;;;;;;;;;;;21.20;99.90;;;;;;1839464;77;20462;-77
2021/08/11 12:40:34;;;;;;;;;;;21.30;99.90;;;;;;1856950;77;20459;-79
2021/08/11 12:43:02;;;;;;;;;;;21.40;99.90;;;;;;1855577;77;20169;-78
2021/08/11 12:45:45;;;;;;;;;;;21.50;99.90;;;;;;1843587;77;20210;-78
2021/08/11 12:48:31;;;;;;;;;;;21.60;99.90;;;;;;1832488;77;20297;-78
2021/08/11 12:50:59;;;;;;;;;;;21.70;99.90;;;;;;1856385;77;20858;-78
2021/08/11 12:53:27;;;;;;;;;;;21.40;99.90;;;;;;1835898;77;20476;-77
2021/08/11 12:56:08;;;;;;;;;;;21.30;99.90;;;;;;1851200;77;20173;-77
2021/08/11 12:58:52;;;;;;;;;;;21.30;99.90;;;;;;1852905;77;20173;-78
2021/08/11 13:01:36;;;;;;;;;;;21.40;99.90;;;;;;1854475;77;20174;-76
2021/08/11 13:04:04;;;;;;;;;;;21.40;99.90;;;;;;1847403;77;20249;-76
2021/08/11 13:06:35;;;;;;;;;;;21.30;99.90;;;;;;1856999;77;20223;-73
2021/08/11 13:09:02;;;;;;;;;;;21.20;99.90;;;;;;1854014;77;20431;-74
2021/08/11 13:11:43;;;;;;;;;;;21.20;99.90;;;;;;1845247;77;20610;-76
2021/08/11 13:14:09;;;;;;;;;;;21.20;99.90;;;;;;1823837;79;20194;-77
2021/08/11 13:16:36;;;;;;;;;;;21.30;99.90;;;;;;1849899;77;20223;-77
2021/08/11 13:19:07;;;;;;;;;;;21.10;99.90;;;;;;1856181;77;20185;-77
2021/08/11 13:21:43;;;;;;;;;;;20.90;99.90;;;;;;1852341;77;20158;-77
2021/08/11 13:24:09;;;;;;;;;;;20.80;99.90;;;;;;1855051;77;20189;-77
2021/08/11 13:26:36;;;;;;;;;;;20.80;99.90;;;;;;1839955;77;20566;-77
2021/08/11 13:29:02;;;;;;;;;;;20.70;99.90;;;;;;1825994;78;20179;-77
2021/08/11 13:31:30;;;;;;;;;;;20.60;99.90;;;;;;1842002;77;20166;-78
2021/08/11 13:33:56;;;;;;;;;;;20.40;99.90;;;;;;1854680;77;20424;-77
2021/08/11 13:36:24;;;;;;;;;;;20.40;99.90;;;;;;1840585;77;20179;-77
2021/08/11 13:38:50;;;;;;;;;;;20.40;99.90;;;;;;1832023;77;20185;-77
2021/08/11 13:41:17;;;;;;;;;;;20.60;99.90;;;;;;1856405;77;20469;-77
2021/08/11 13:43:44;;;;;;;;;;;20.90;99.90;;;;;;1853406;77;20245;-77
2021/08/11 13:46:11;;;;;;;;;;;21.20;99.90;;;;;;1840454;77;20774;-77
2021/08/11 13:48:38;;;;;;;;;;;21.30;99.90;;;;;;1846270;77;20126;-77
2021/08/11 13:51:04;;;;;;;;;;;21.50;99.90;;;;;;1852479;77;20196;-77
2021/08/11 13:53:31;;;;;;;;;;;21.50;99.90;;;;;;1855805;77;20130;-77
2021/08/11 13:55:58;;;;;;;;;;;21.70;99.90;;;;;;1856724;76;20157;-77
2021/08/11 13:58:25;;;;;;;;;;;21.60;99.90;;;;;;1856663;77;20181;-77
2021/08/11 14:00:52;;;;;;;;;;;21.70;99.90;;;;;;1837469;77;20198;-77
2021/08/11 14:03:18;;;;;;;;;;;22.10;99.90;;;;;;1853578;77;20165;-77
2021/08/11 14:05:45;;;;;;;;;;;22.30;99.90;;;;;;1826083;77;20164;-77
2021/08/11 14:08:12;;;;;;;;;;;22.70;99.90;;;;;;1855095;77;20115;-78
2021/08/11 14:10:39;;;;;;;;;;;22.90;99.90;;;;;;1855259;77;20181;-77
2021/08/11 14:13:05;;;;;;;;;;;23.10;99.90;;;;;;1855941;77;20207;-77
2021/08/11 14:15:32;;;;;;;;;;;23.10;99.90;;;;;;1853786;77;20205;-77
2021/08/11 14:18:00;;;;;;;;;;;22.70;99.90;;;;;;1855052;77;20181;-78
2021/08/11 14:20:27;;;;;;;;;;;22.80;99.90;;;;;;1856149;77;20193;-77
2021/08/11 14:22:53;;;;;;;;;;;23.30;99.90;;;;;;1855095;77;20185;-76